createdAt,value
2019-04-20T00:01:16.731Z,54.22
2019-04-20T00:03:45.652Z,54.78
2019-04-20T00:06:19.387Z,54.14
2019-04-20T00:08:58.863Z,54.86
2019-04-20T00:11:31.282Z,55.02
2019-04-20T00:14:05.618Z,55.37
2019-04-20T00:16:33.766Z,54.94
2019-04-20T00:19:07.169Z,55.25
2019-04-20T00:21:57.730Z,55.16
2019-04-20T00:24:34.063Z,56.06
2019-04-20T00:27:30.270Z,55.88
2019-04-20T00:29:54.880Z,55.80
2019-04-20T00:32:20.996Z,55.77
2019-04-20T00:34:47.091Z,55.86
2019-04-20T00:37:19.288Z,56.11
2019-04-20T00:39:51.033Z,55.53
2019-04-20T00:42:32.503Z,55.73
2019-04-20T00:45:05.627Z,55.60
2019-04-20T00:47:37.140Z,55.60
2019-04-20T00:50:19.633Z,56.32
2019-04-20T00:52:54.377Z,56.12
2019-04-20T00:55:10.506Z,56.31
2019-04-20T00:57:51.406Z,56.33
2019-04-20T01:00:32.833Z,56.50
2019-04-20T01:03:07.942Z,56.86
2019-04-20T01:05:53.005Z,57.34
2019-04-20T01:08:17.139Z,57.59
2019-04-20T01:10:52.534Z,57.63
2019-04-20T01:13:24.448Z,57.38
2019-04-20T01:16:03.299Z,58.02
2019-04-20T01:18:28.682Z,57.77
2019-04-20T01:21:09.533Z,57.74
2019-04-20T01:23:40.416Z,57.56
2019-04-20T01:26:11.465Z,58.27
2019-04-20T01:28:54.135Z,58.14
2019-04-20T01:31:25.430Z,58.08
2019-04-20T01:33:56.555Z,58.03
2019-04-20T01:36:43.031Z,57.93
2019-04-20T01:39:07.468Z,58.10
2019-04-20T01:41:28.593Z,57.92
2019-04-20T01:44:02.616Z,58.36
2019-04-20T01:46:38.340Z,58.67
2019-04-20T01:49:13.598Z,58.58
2019-04-20T01:51:53.616Z,58.99
2019-04-20T01:54:31.126Z,58.76
2019-04-20T01:57:06.263Z,58.93
2019-04-20T01:59:56.342Z,58.96
2019-04-20T02:02:49.736Z,59.27
2019-04-20T02:05:25.102Z,59.18
2019-04-20T02:07:53.184Z,59.34
2019-04-20T02:10:33.247Z,59.26
2019-04-20T02:13:01.054Z,59.63
2019-04-20T02:15:37.917Z,59.88
2019-04-20T02:18:19.117Z,60.05
2019-04-20T02:20:54.526Z,59.80
2019-04-20T02:23:21.450Z,59.83
2019-04-20T02:25:43.989Z,60.18
2019-04-20T02:28:34.035Z,60.44
2019-04-20T02:31:23.101Z,60.84
2019-04-20T02:34:11.422Z,60.71
2019-04-20T02:37:05.403Z,60.91
2019-04-20T02:44:52.641Z,61.18
2019-04-20T02:47:16.427Z,61.24
2019-04-20T02:50:00.243Z,61.09
2019-04-20T02:52:21.075Z,61.29
2019-04-20T02:54:55.034Z,61.31
2019-04-20T02:57:32.682Z,61.66
2019-04-20T03:02:18.235Z,62.13
2019-04-20T03:04:42.504Z,62.34
2019-04-20T03:07:23.282Z,62.20
2019-04-20T03:10:03.939Z,61.99
2019-04-20T03:12:38.382Z,62.50
2019-04-20T03:15:03.060Z,62.44
2019-04-20T03:17:46.250Z,62.74
2019-04-20T03:20:10.662Z,62.91
2019-04-20T03:23:14.288Z,63.10
2019-04-20T03:25:45.069Z,63.13
2019-04-20T03:28:15.549Z,62.93
2019-04-20T03:36:12.211Z,63.25
2019-04-20T03:38:33.297Z,63.19
2019-04-20T03:40:59.114Z,63.50
2019-04-20T03:43:20.214Z,63.50
2019-04-20T03:45:59.536Z,63.41
2019-04-20T03:48:41.163Z,63.34
2019-04-20T03:51:26.812Z,63.58
2019-04-20T03:54:02.758Z,63.62
2019-04-20T03:56:49.222Z,63.72
2019-04-20T03:59:44.299Z,63.69
2019-04-20T04:02:45.872Z,63.67
2019-04-20T04:05:17.649Z,63.73
2019-04-20T04:07:40.398Z,64.20
2019-04-20T04:10:20.656Z,64.19
2019-04-20T04:13:14.776Z,64.09
2019-04-20T04:15:52.265Z,64.19
2019-04-20T04:18:29.797Z,64.04
2019-04-20T04:21:03.050Z,64.22
2019-04-20T04:23:44.495Z,64.27
2019-04-20T04:26:22.488Z,64.18
2019-04-20T04:28:49.002Z,64.56
2019-04-20T04:31:27.839Z,64.60
2019-04-20T04:34:12.413Z,64.40
2019-04-20T04:36:30.265Z,64.38
2019-04-20T04:39:11.455Z,64.57
2019-04-20T04:41:39.732Z,64.44
2019-04-20T04:44:11.224Z,64.89
2019-04-20T04:46:29.287Z,65.01
2019-04-20T04:49:11.791Z,64.98
2019-04-20T04:51:44.631Z,65.08
2019-04-20T04:54:16.408Z,65.45
2019-04-20T04:56:41.724Z,65.11
2019-04-20T04:59:14.838Z,65.63
2019-04-20T05:01:51.454Z,65.27
2019-04-20T05:04:55.175Z,65.32
2019-04-20T05:07:09.315Z,65.09
2019-04-20T05:09:29.601Z,65.11
2019-04-20T05:12:07.144Z,65.30
2019-04-20T05:14:47.105Z,65.52
2019-04-20T05:17:28.121Z,64.68
2019-04-20T05:20:02.514Z,63.30
2019-04-20T05:22:38.872Z,62.29
2019-04-20T05:25:27.354Z,61.17
2019-04-20T05:28:01.379Z,61.08
2019-04-20T05:30:16.252Z,58.96
2019-04-20T05:32:54.795Z,58.67
2019-04-20T05:35:43.716Z,57.45
2019-04-20T05:38:28.100Z,57.38
2019-04-20T05:40:50.492Z,55.73
2019-04-20T05:43:33.521Z,55.34
2019-04-20T05:46:05.985Z,54.27
2019-04-20T05:48:45.705Z,53.89
2019-04-20T05:51:20.749Z,53.15
2019-04-20T05:53:48.814Z,52.97
2019-04-20T05:56:29.162Z,52.33
2019-04-20T05:58:56.965Z,51.78
2019-04-20T06:01:36.281Z,51.41
2019-04-20T06:04:00.086Z,50.46
2019-04-20T06:06:37.595Z,50.77
2019-04-20T06:09:12.263Z,49.64
2019-04-20T06:12:01.136Z,50.09
2019-04-20T06:14:37.088Z,49.55
2019-04-20T06:17:22.931Z,48.98
2019-04-20T06:19:51.943Z,48.62
2019-04-20T06:22:34.959Z,48.17
2019-04-20T06:25:23.622Z,48.16
2019-04-20T06:27:46.064Z,49.73
2019-04-20T06:30:10.928Z,43.51
2019-04-20T06:34:01.321Z,44.40
2019-04-20T06:39:13.362Z,41.71
2019-04-20T06:41:34.992Z,41.32
2019-04-20T06:44:08.393Z,39.68
2019-04-20T06:46:37.446Z,40.12
2019-04-20T06:49:18.353Z,39.42
2019-04-20T06:51:49.081Z,37.93
2019-04-20T06:54:32.416Z,39.16
2019-04-20T06:57:12.998Z,38.33
2019-04-20T06:59:43.210Z,39.66
2019-04-20T07:02:21.864Z,37.95
2019-04-20T07:05:08.565Z,39.86
2019-04-20T07:07:36.297Z,42.09
2019-04-20T07:10:02.623Z,38.15
2019-04-20T07:12:31.203Z,37.36
2019-04-20T07:14:50.864Z,37.84
2019-04-20T07:17:58.975Z,36.30
2019-04-20T07:20:51.644Z,37.59
2019-04-20T07:23:26.912Z,36.93
2019-04-20T07:25:59.520Z,35.53
2019-04-20T07:28:27.094Z,35.51
2019-04-20T07:30:55.371Z,36.04
2019-04-20T07:33:32.248Z,36.17
2019-04-20T07:36:06.094Z,35.67
2019-04-20T07:38:42.605Z,35.82
2019-04-20T07:41:08.286Z,35.36
2019-04-20T07:43:57.373Z,35.47
2019-04-20T07:46:35.219Z,35.64
2019-04-20T07:48:54.381Z,35.81
2019-04-20T07:51:13.468Z,35.58
2019-04-20T07:54:08.884Z,35.48
2019-04-20T07:56:37.547Z,36.18
2019-04-20T07:58:52.738Z,35.96
2019-04-20T08:02:06.017Z,35.94
2019-04-20T08:04:28.572Z,35.73
2019-04-20T08:06:49.867Z,35.86
2019-04-20T08:09:28.088Z,35.49
2019-04-20T08:12:26.848Z,34.71
2019-04-20T08:14:56.852Z,35.44
2019-04-20T08:17:31.222Z,35.22
2019-04-20T08:20:00.124Z,34.56
2019-04-20T08:22:35.482Z,34.70
2019-04-20T08:25:01.359Z,35.71
2019-04-20T08:27:23.463Z,34.53
2019-04-20T08:30:22.831Z,36.70
2019-04-20T08:33:06.873Z,34.66
2019-04-20T08:35:51.248Z,34.41
2019-04-20T08:40:47.881Z,34.48
2019-04-20T08:43:39.580Z,34.66
2019-04-20T08:45:59.605Z,35.16
2019-04-20T08:48:34.819Z,33.96
2019-04-20T08:51:03.594Z,35.44
2019-04-20T08:53:37.025Z,34.26
2019-04-20T08:56:05.494Z,33.90
2019-04-20T08:58:24.864Z,35.41
2019-04-20T09:01:00.830Z,33.95
2019-04-20T09:03:40.883Z,34.59
2019-04-20T09:06:14.568Z,34.79
2019-04-20T09:08:46.649Z,33.63
2019-04-20T09:11:25.038Z,34.24
2019-04-20T09:13:48.434Z,34.03
2019-04-20T09:16:19.962Z,34.57
2019-04-20T09:18:57.906Z,35.05
2019-04-20T09:21:38.017Z,34.96
2019-04-20T09:24:26.915Z,34.52
2019-04-20T09:26:48.975Z,33.66
2019-04-20T09:29:23.608Z,33.52
2019-04-20T09:32:00.261Z,34.20
2019-04-20T09:34:45.268Z,33.73
2019-04-20T09:37:41.675Z,33.09
2019-04-20T09:40:33.054Z,32.98
2019-04-20T09:42:53.717Z,32.64
2019-04-20T09:45:37.094Z,34.05
2019-04-20T09:48:13.257Z,32.50
2019-04-20T09:50:55.522Z,32.93
2019-04-20T09:53:24.788Z,33.07
2019-04-20T09:56:01.908Z,32.24
2019-04-20T09:58:28.069Z,32.59
2019-04-20T10:01:01.814Z,31.43
2019-04-20T10:03:24.871Z,31.69
2019-04-20T10:05:57.049Z,32.50
2019-04-20T10:08:29.364Z,31.10
2019-04-20T10:11:01.489Z,31.37
2019-04-20T10:13:34.385Z,31.77
2019-04-20T10:16:06.172Z,31.66
2019-04-20T10:18:44.177Z,31.11
2019-04-20T10:21:13.771Z,31.77
2019-04-20T10:23:45.458Z,31.06
2019-04-20T10:26:18.562Z,32.23
2019-04-20T10:28:51.814Z,32.43
2019-04-20T10:31:24.521Z,31.07
2019-04-20T10:33:57.534Z,32.84
2019-04-20T10:37:01.680Z,31.71
2019-04-20T10:39:36.311Z,33.23
2019-04-20T10:42:08.414Z,30.78
2019-04-20T10:44:40.952Z,30.83
2019-04-20T10:47:12.730Z,30.63
2019-04-20T10:49:45.045Z,29.74
2019-04-20T10:52:17.866Z,29.29
2019-04-20T10:54:50.342Z,29.74
2019-04-20T10:57:22.048Z,28.14
2019-04-20T10:59:53.624Z,29.19
2019-04-20T11:02:25.869Z,29.01
2019-04-20T11:04:58.836Z,29.02
2019-04-20T11:07:30.614Z,29.98
2019-04-20T11:10:14.276Z,29.65
2019-04-20T11:12:38.017Z,30.46
2019-04-20T11:15:10.570Z,29.61
2019-04-20T11:17:43.456Z,29.39
2019-04-20T11:20:15.378Z,29.23
2019-04-20T11:22:48.436Z,29.22
2019-04-20T11:25:20.209Z,30.34
2019-04-20T11:27:52.259Z,28.85
2019-04-20T11:30:24.078Z,28.78
2019-04-20T11:32:56.013Z,28.79
2019-04-20T11:35:32.670Z,29.02
2019-04-20T11:38:01.188Z,29.96
2019-04-20T11:40:32.975Z,29.18
2019-04-20T11:43:05.750Z,29.23
2019-04-20T11:45:38.490Z,29.59
2019-04-20T11:48:11.549Z,28.50
2019-04-20T11:50:43.437Z,28.73
2019-04-20T11:53:17.430Z,28.35
2019-04-20T11:55:49.102Z,28.42
2019-04-20T11:58:21.770Z,28.64
2019-04-20T12:01:03.202Z,28.90
2019-04-20T12:03:38.061Z,29.43
2019-04-20T12:06:06.294Z,27.87
2019-04-20T12:08:40.191Z,29.08
2019-04-20T12:11:22.791Z,28.01
2019-04-20T12:13:42.828Z,27.50
2019-04-20T12:16:14.459Z,29.03
2019-04-20T12:18:46.403Z,27.31
2019-04-20T12:21:18.928Z,28.18
2019-04-20T12:23:51.998Z,29.73
2019-04-20T12:26:24.849Z,28.37
2019-04-20T12:28:57.894Z,27.56
2019-04-20T12:31:29.616Z,27.63
2019-04-20T12:34:02.290Z,27.03
2019-04-20T12:36:35.296Z,27.78
2019-04-20T12:39:10.990Z,27.52
2019-04-20T12:41:49.816Z,27.44
2019-04-20T12:44:17.421Z,27.40
2019-04-20T12:46:49.912Z,26.00
2019-04-20T12:49:21.601Z,25.11
2019-04-20T12:51:58.011Z,25.42
2019-04-20T12:54:26.938Z,25.70
2019-04-20T12:56:58.662Z,24.28
2019-04-20T12:59:31.580Z,25.19
2019-04-20T13:02:03.401Z,24.23
2019-04-20T13:04:37.297Z,24.65
2019-04-20T13:07:10.095Z,24.27
2019-04-20T13:09:50.652Z,24.71
2019-04-20T13:12:52.296Z,25.40
2019-04-20T13:15:54.683Z,25.38
2019-04-20T13:18:31.185Z,24.60
2019-04-20T13:21:03.262Z,23.85
2019-04-20T13:23:35.147Z,24.19
2019-04-20T13:26:08.744Z,24.84
2019-04-20T13:28:41.321Z,24.94
2019-04-20T13:31:15.621Z,24.99
2019-04-20T13:33:47.693Z,24.29
2019-04-20T13:36:19.965Z,25.03
2019-04-20T13:38:52.242Z,25.04
2019-04-20T13:41:24.414Z,25.23
2019-04-20T13:43:59.257Z,24.75
2019-04-20T13:46:29.475Z,25.73
2019-04-20T13:49:01.066Z,24.57
2019-04-20T13:51:32.902Z,25.25
2019-04-20T13:54:06.268Z,26.44
2019-04-20T13:56:39.740Z,27.35
2019-04-20T13:59:27.846Z,26.24
2019-04-20T14:02:10.897Z,25.38
2019-04-20T14:04:52.825Z,25.38
2019-04-20T14:07:27.039Z,25.91
2019-04-20T14:09:59.506Z,27.21
2019-04-20T14:12:37.134Z,26.59
2019-04-20T14:15:06.805Z,26.10
2019-04-20T14:17:39.244Z,26.74
2019-04-20T14:20:13.880Z,26.57
2019-04-20T14:22:45.205Z,26.57
2019-04-20T14:25:16.931Z,26.58
2019-04-20T14:27:48.759Z,25.99
2019-04-20T14:30:21.120Z,27.07
2019-04-20T14:32:54.709Z,27.38
2019-04-20T14:35:27.075Z,26.76
2019-04-20T14:37:59.682Z,26.93
2019-04-20T14:40:32.446Z,27.02
2019-04-20T14:43:04.205Z,26.19
2019-04-20T14:45:36.673Z,26.77
2019-04-20T14:48:09.841Z,26.28
2019-04-20T14:50:41.590Z,26.65
2019-04-20T14:53:13.612Z,26.22
2019-04-20T14:55:45.248Z,27.37
2019-04-20T14:58:38.343Z,27.18
2019-04-20T15:01:18.579Z,26.17
2019-04-20T15:03:59.825Z,25.81
2019-04-20T15:06:23.478Z,26.55
2019-04-20T15:08:55.101Z,25.71
2019-04-20T15:11:27.090Z,26.58
2019-04-20T15:13:58.806Z,26.23
2019-04-20T15:16:30.776Z,25.69
2019-04-20T15:19:23.667Z,26.09
2019-04-20T15:21:57.710Z,25.77
2019-04-20T15:24:29.466Z,26.08
2019-04-20T15:27:02.444Z,25.44
2019-04-20T15:29:34.159Z,26.30
2019-04-20T15:32:06.090Z,25.92
2019-04-20T15:34:39.107Z,27.22
2019-04-20T15:37:11.968Z,26.91
2019-04-20T15:39:43.727Z,26.63
2019-04-20T15:42:15.396Z,26.04
2019-04-20T15:44:49.280Z,25.87
2019-04-20T15:47:22.278Z,26.27
2019-04-20T15:49:54.047Z,25.60
2019-04-20T15:52:33.574Z,25.20
2019-04-20T15:55:03.099Z,25.84
2019-04-20T15:57:34.504Z,25.27
2019-04-20T16:00:08.724Z,24.79
2019-04-20T16:02:51.441Z,25.10
2019-04-20T16:05:37.666Z,24.68
2019-04-20T16:08:46.387Z,25.43
2019-04-20T16:11:19.332Z,24.96
2019-04-20T16:13:53.843Z,24.98
2019-04-20T16:16:25.684Z,25.03
2019-04-20T16:18:58.834Z,24.62
2019-04-20T16:21:33.900Z,25.03
2019-04-20T16:24:10.945Z,25.39
2019-04-20T16:26:53.685Z,24.96
2019-04-20T16:29:25.873Z,24.87
2019-04-20T16:31:58.343Z,25.03
2019-04-20T16:34:29.964Z,24.90
2019-04-20T16:37:02.173Z,24.67
2019-04-20T16:39:34.371Z,25.22
2019-04-20T16:42:08.609Z,25.11
2019-04-20T16:44:41.248Z,25.56
2019-04-20T16:47:14.231Z,25.35
2019-04-20T16:49:46.724Z,25.39
2019-04-20T16:52:19.120Z,25.81
2019-04-20T16:54:50.814Z,25.44
2019-04-20T16:57:23.697Z,25.60
2019-04-20T16:59:57.772Z,25.53
2019-04-20T17:02:29.850Z,25.05
2019-04-20T17:05:02.968Z,25.46
2019-04-20T17:07:39.314Z,26.04
2019-04-20T17:10:12.310Z,25.90
2019-04-20T17:12:45.905Z,25.83
2019-04-20T17:15:21.322Z,25.65
2019-04-20T17:17:55.217Z,25.33
2019-04-20T17:20:27.289Z,25.79
2019-04-20T17:23:00.358Z,25.72
2019-04-20T17:25:34.027Z,25.77
2019-04-20T17:28:24.936Z,26.10
2019-04-20T17:31:03.071Z,26.35
2019-04-20T17:33:54.147Z,26.44
2019-04-20T17:36:19.737Z,26.79
2019-04-20T17:38:54.163Z,26.66
2019-04-20T17:41:44.534Z,26.85
2019-04-20T17:44:14.221Z,26.85
2019-04-20T17:46:43.868Z,26.83
2019-04-20T17:49:18.309Z,26.90
2019-04-20T17:51:58.090Z,27.43
2019-04-20T17:54:27.203Z,27.42
2019-04-20T17:57:00.277Z,27.83
2019-04-20T17:59:32.388Z,28.05
2019-04-20T18:02:54.141Z,28.38
2019-04-20T18:05:37.118Z,28.41
2019-04-20T18:08:10.616Z,28.82
2019-04-20T18:10:36.480Z,29.31
2019-04-20T18:12:56.529Z,29.67
2019-04-20T18:15:42.335Z,30.09
2019-04-20T18:18:42.129Z,29.97
2019-04-20T18:21:16.903Z,30.19
2019-04-20T18:24:14.446Z,30.36
2019-04-20T18:26:59.346Z,30.68
2019-04-20T18:29:36.781Z,30.38
2019-04-20T18:32:09.859Z,30.36
2019-04-20T18:34:54.127Z,30.29
2019-04-20T18:37:23.915Z,30.38
2019-04-20T18:39:59.669Z,30.36
2019-04-20T18:42:36.730Z,30.51
2019-04-20T18:45:21.651Z,30.97
2019-04-20T18:47:59.238Z,31.23
2019-04-20T18:50:17.321Z,31.74
2019-04-20T18:52:42.377Z,31.94
2019-04-20T18:55:22.229Z,31.94
2019-04-20T18:57:48.950Z,32.23
2019-04-20T19:00:28.765Z,32.13
2019-04-20T19:03:01.376Z,31.92
2019-04-20T19:05:29.668Z,32.47
2019-04-20T19:08:05.291Z,32.67
2019-04-20T19:10:38.068Z,32.37
2019-04-20T19:13:22.968Z,32.41
2019-04-20T19:16:17.584Z,32.66
2019-04-20T19:19:06.650Z,33.29
2019-04-20T19:21:31.104Z,34.30
2019-04-20T19:24:09.232Z,34.80
2019-04-20T19:26:38.486Z,34.61
2019-04-20T19:29:19.965Z,37.05
2019-04-20T19:32:05.921Z,37.13
2019-04-20T19:34:35.411Z,38.03
2019-04-20T19:37:02.411Z,38.33
2019-04-20T19:39:39.850Z,38.86
2019-04-20T19:42:13.136Z,39.52
2019-04-20T19:44:49.515Z,40.26
2019-04-20T19:47:28.463Z,40.77
2019-04-20T19:49:49.728Z,40.81
2019-04-20T19:52:53.081Z,41.11
2019-04-20T19:55:03.339Z,41.17
2019-04-20T19:57:38.901Z,41.63
2019-04-20T19:59:55.523Z,41.74
2019-04-20T20:02:25.906Z,41.42
2019-04-20T20:05:05.362Z,41.82
2019-04-20T20:07:40.140Z,42.02
2019-04-20T20:10:09.136Z,42.74
2019-04-20T20:12:49.424Z,43.12
2019-04-20T20:15:22.288Z,42.71
2019-04-20T20:18:10.215Z,43.04
2019-04-20T20:20:41.480Z,43.18
2019-04-20T20:22:58.151Z,42.91
2019-04-20T20:25:32.852Z,43.45
2019-04-20T20:28:17.085Z,43.32
2019-04-20T20:30:42.817Z,43.91
2019-04-20T20:33:23.823Z,43.65
2019-04-20T20:35:49.279Z,43.49
2019-04-20T20:38:22.422Z,44.39
2019-04-20T20:40:57.902Z,43.91
2019-04-20T20:43:37.611Z,45.14
2019-04-20T20:46:05.254Z,44.95
2019-04-20T20:48:54.348Z,44.63
2019-04-20T20:51:15.197Z,45.10
2019-04-20T20:53:47.319Z,45.40
2019-04-20T20:56:15.509Z,45.45
2019-04-20T20:58:53.887Z,45.26
2019-04-20T21:01:22.210Z,46.00
2019-04-20T21:03:52.566Z,45.70
2019-04-20T21:06:22.443Z,45.91
2019-04-20T21:08:56.705Z,45.88
2019-04-20T21:11:31.444Z,45.92
2019-04-20T21:14:04.394Z,46.13
2019-04-20T21:16:40.470Z,45.98
2019-04-20T21:19:23.474Z,45.65
2019-04-20T21:21:50.503Z,45.14
2019-04-20T21:24:46.731Z,46.28
2019-04-20T21:27:19.800Z,46.71
2019-04-20T21:29:54.266Z,47.38
2019-04-20T21:32:23.722Z,47.38
2019-04-20T21:35:02.661Z,47.53
2019-04-20T21:37:29.026Z,48.29
2019-04-20T21:40:11.627Z,48.54
2019-04-20T21:42:42.476Z,48.84
2019-04-20T21:45:15.867Z,49.22
2019-04-20T21:47:43.064Z,49.44
2019-04-20T21:50:30.013Z,49.50
2019-04-20T21:52:51.838Z,49.53
2019-04-20T21:55:21.778Z,49.65
2019-04-20T21:57:58.460Z,49.74
2019-04-20T22:00:42.486Z,49.62
2019-04-20T22:03:13.681Z,49.84
2019-04-20T22:05:46.546Z,50.40
2019-04-20T22:08:19.703Z,49.99
2019-04-20T22:10:51.491Z,50.40
2019-04-20T22:13:29.298Z,50.20
2019-04-20T22:16:02.003Z,50.26
2019-04-20T22:18:31.794Z,50.28
2019-04-20T22:21:13.278Z,50.13
2019-04-20T22:23:57.123Z,50.66
2019-04-20T22:26:24.433Z,51.25
2019-04-20T22:28:44.579Z,50.36
2019-04-20T22:31:16.365Z,50.67
2019-04-20T22:33:48.921Z,50.36
2019-04-20T22:36:25.942Z,50.79
2019-04-20T22:39:13.962Z,51.06
2019-04-20T22:41:53.559Z,50.98
2019-04-20T22:44:26.597Z,50.93
2019-04-20T22:46:56.784Z,50.32
2019-04-20T22:49:44.231Z,50.90
2019-04-20T22:52:22.290Z,50.85
2019-04-20T22:54:51.806Z,50.37
2019-04-20T22:57:27.879Z,50.33
2019-04-20T22:59:51.905Z,49.67
2019-04-20T23:02:16.316Z,49.53
2019-04-20T23:04:48.785Z,50.12
2019-04-20T23:07:20.908Z,49.82
2019-04-20T23:09:54.958Z,49.06
2019-04-20T23:12:27.554Z,49.16
2019-04-20T23:15:00.199Z,48.73
2019-04-20T23:17:39.820Z,48.01
2019-04-20T23:20:13.174Z,47.96
2019-04-20T23:22:42.508Z,47.02
2019-04-20T23:25:13.366Z,47.30
2019-04-20T23:27:45.776Z,47.26
2019-04-20T23:30:23.578Z,48.32
2019-04-20T23:32:51.760Z,47.88
2019-04-20T23:35:26.580Z,47.61
2019-04-20T23:38:05.518Z,48.23
2019-04-20T23:40:30.119Z,47.86
2019-04-20T23:43:17.747Z,47.62
2019-04-20T23:46:01.118Z,47.01
2019-04-20T23:48:48.086Z,46.24
2019-04-20T23:51:44.204Z,46.39
2019-04-20T23:54:02.010Z,46.70
2019-04-20T23:56:27.856Z,46.34
2019-04-20T23:58:59.881Z,47.88
